Terminal Aerodrome Forecast
Issued by NWS

Home | Current Version | Previous Version | Text Only | Print | Product List | Glossary On
Versions: 1 2 3 4 5 6 7 8 9 10 11 12 13
000
FTUS41 KLWX 051135
TAFMTN
TAF
KMTN 051135Z 0512/0612 20003KT P6SM SCT200
     FM051600 29005KT P6SM BKN090
     FM052000 VRB05KT 6SM -SHRA BKN050
     FM052300 VRB03KT P6SM VCSH OVC080=

USA.gov is the U.S. government's official web portal to all federal, state and local government web resources and services.